GPS DATA

Thu Jun 21 06:51:00 2018 APRS[EA3GPL-7]Decoded GPS Auto: LAT(N4132.588) LONG(E00205.34) SPEED(0.0) RPT:214302
Thu Jun 21 06:54:00 2018 APRS[EA3GPL-7]Decoded GPS Auto: LAT(N4132.590) LONG(E00205.33) SPEED(0.0) RPT:214302
Thu Jun 21 06:57:00 2018 APRS[EA3GPL-7]Decoded GPS Auto: LAT(N4132.586) LONG(E00205.35) SPEED(0.0) RPT:214302
Thu Jun 21 06:59:59 2018 APRS[EA3GPL-7]Decoded GPS Auto: LAT(N4132.586) LONG(E00205.35) SPEED(0.0) RPT:214302
Thu Jun 21 07:03:01 2018 APRS[EA3GPL-7]Decoded GPS Auto: LAT(N4132.584) LONG(E00205.35) SPEED(0a) RPT:214302
Thu Jun 21 07:06:00 2018 APRS[EA3GPL-7]Decoded GPS Auto: LAT(N4132.591) LONG(E00205.33) SPEED(1.2) RPT:214302
Thu Jun 21 07:09:00 2018 APRS[EA3GPL-7]Decoded GPS Auto: LAT(N4132.589) LONG(E00205.33) SPEED(1.4) RPT:214302
Thu Jun 21 07:12:00 2018 APRS[EA3GPL-7]Decoded GPS Auto: LAT(N4132.585) LONG(E00205.33) SPEED(0.7) RPT:214302
Thu Jun 21 07:15:00 2018 APRS[EA3GPL-7]Decoded GPS Auto: LAT(N4132.579) LONG(E00205.36) SPEED(2.8) RPT:214302
Thu Jun 21 07:18:00 2018 APRS[EA3GPL-7]Decoded GPS Auto: LAT(N4132.581) LONG(E00205.33) SPEED(0.9) RPT:214302
Thu Jun 21 07:21:00 2018 APRS[EA3GPL-7]Decoded GPS Auto: LAT(N4132.590) LONG(E00205.33) SPEED(0.8) RPT:214302
Thu Jun 21 07:24:00 2018 APRS[EA3GPL-7]Decoded GPS Auto: LAT(N4132.590) LONG(E00205.32) SPEED(0.2) RPT:214302
Thu Jun 21 06:11:57 2018 APRS[EA3ABN-7]Decoded GPS Auto: LAT(N4130.481) LONG(E00206.39) SPEED(20.) RPT:214302
Thu Jun 21 06:13:33 2018 APRS[EA3HNX-7]Decoded GPS Auto: LAT(A06132) LONG(210213.39) SPEED(5.0) RPT:214302
Thu Jun 21 06:14:52 2018 APRS[EA3ABN-7]Decoded GPS Auto: LAT(N4129.623) LONG( ) SPEED(42.) RPT:214302
Thu Jun 21 06:15:52 2018 APRS[EA3ABN-7]Decoded GPS Auto: LAT(N4129.536) LONG(E00205.81) SPEED(0.5) RPT:214302
Thu Jun 21 06:15:58 2018 APRS[EA3HNX-7]Decoded GPS Auto: LAT(A06155) LONG(210213.57) SPEED( 3 ) RPT:214302
Thu Jun 21 06:18:27 2018 APRS[EA3HNX-7]Decoded GPS Auto: LAT(N4132.920) LONG(E00213.85) SPEED(28.) RPT:214302
Thu Jun 21 06:24:04 2018 APRS[EA3GPL-7]Decoded GPS Auto: LAT(N4132.584) LONG(E00205.33) SPEED(0.3) RPT:214302
Thu Jun 21 06:26:59 2018 APRS[EA3GPL-7]Decoded GPS Auto: LAT(N4132.594) LONG(E00205.33) SPEED(0.7) RPT:214302
Thu Jun 21 06:29:57 2018 APRS[EA3ABN-7]Decoded GPS Auto: LAT(N4127.391) LONG(E00153.25) SPEED(59.) RPT:214302
Thu Jun 21 06:30:01 2018 APRS[EA3GPL-7]Decoded GPS Auto: LAT(N4132.589) LONG(E00205.33) SPEED(0.0) RPT:214302
Thu Jun 21 06:32:56 2018 APRS[EA3ABN-7]Decoded GPS Auto: LAT(N4125.522) LONG(E00149.82) SPEED(66.) RPT:214302
Thu Jun 21 06:33:01 2018 APRS[EA3GPL-7]Decoded GPS Auto: LAT(N4132.590) LONG(E00205.33) SPEED(0.1) RPT:214302
Thu Jun 21 06:36:02 2018 APRS[EA3GPL-7]Decoded GPS Auto: LAT(N4132.588) LONG(E00205.33) SPEED(2.1) RPT:214302
Thu Jun 21 06:38:59 2018 APRS[EA3GPL-7]Decoded GPS Auto: LAT(N4132.592) LONG(E00205.33) SPEED(0.0) RPT:214302
Thu Jun 21 06:42:00 2018 APRS[EA3GPL-7]Decoded GPS Auto: LAT(N4132.592) LONG(E00205.34) SPEED(0.0) RPT:214302
Thu Jun 21 06:44:59 2018 APRS[EA3GPL-7]Decoded GPS Auto: LAT(N4132.591) LONG(E00205.33) SPEED(0.0) RPT:214302
Thu Jun 21 06:48:03 2018 APRS[EA3GPL-7]Decoded GPS Auto: LAT(N4132.589) LONG(E00205.34) SPEED(0.0) RPT:214302